createdAt,value
2023-03-12T00:00:01.560Z,99763.09
2023-03-12T00:00:33.240Z,99762.25
2023-03-12T00:01:34.624Z,99764.75
2023-03-12T00:02:06.342Z,99767.38
2023-03-12T00:02:38.254Z,99777.69
2023-03-12T00:03:10.313Z,99775.19
2023-03-12T00:03:42.122Z,99763.19
2023-03-12T00:04:13.810Z,99757.41
2023-03-12T00:04:45.490Z,99767.78
2023-03-12T00:05:17.226Z,99768.13
2023-03-12T00:05:48.901Z,99769.78
2023-03-12T00:06:21.701Z,99759.88
2023-03-12T00:06:53.485Z,99762.56
2023-03-12T00:07:25.237Z,99763.19
2023-03-12T00:07:59.884Z,99760.66
2023-03-12T00:08:31.567Z,99759.94
2023-03-12T00:09:04.748Z,99765.13
2023-03-12T00:09:38.759Z,99770.34
2023-03-12T00:10:11.249Z,99772.13
2023-03-12T00:10:42.913Z,99758.59
2023-03-12T00:11:17.458Z,99765.31
2023-03-12T00:11:49.250Z,99767.31
2023-03-12T00:12:20.951Z,99770.53
2023-03-12T00:12:53.065Z,99768.09
2023-03-12T00:13:24.826Z,99768.44
2023-03-12T00:13:58.706Z,99783.81
2023-03-12T00:14:30.577Z,99762.47
2023-03-12T00:15:02.267Z,99775.31
2023-03-12T00:15:39.075Z,99776.25
2023-03-12T00:16:14.236Z,99769.84
2023-03-12T00:16:46.179Z,99771.69
2023-03-12T00:17:17.865Z,99768.09
2023-03-12T00:17:50.084Z,99780.25
2023-03-12T00:18:21.828Z,99776.06
2023-03-12T00:18:55.474Z,99773.84
2023-03-12T00:19:27.852Z,99771.03
2023-03-12T00:19:59.565Z,99774.66
2023-03-12T00:20:31.478Z,99779.78
2023-03-12T00:21:03.257Z,99775.41
2023-03-12T00:21:34.963Z,99771.03
2023-03-12T00:22:06.662Z,99775.50
2023-03-12T00:22:38.913Z,99770.47
2023-03-12T00:23:10.585Z,99775.59
2023-03-12T00:23:42.262Z,99773.91
2023-03-12T00:24:14.121Z,99769.56
2023-03-12T00:24:51.402Z,99779.03
2023-03-12T00:25:23.124Z,99786.69
2023-03-12T00:25:54.992Z,99785.75
2023-03-12T00:26:26.691Z,99783.13
2023-03-12T00:26:58.330Z,99782.22
2023-03-12T00:27:30.013Z,99777.47
2023-03-12T00:28:01.712Z,99787.41
2023-03-12T00:28:35.154Z,99785.66
2023-03-12T00:29:06.835Z,99775.69
2023-03-12T00:29:38.543Z,99783.31
2023-03-12T00:30:11.552Z,99776.78
2023-03-12T00:30:43.905Z,99781.66
2023-03-12T00:31:28.738Z,99778.28
2023-03-12T00:32:00.526Z,99780.72
2023-03-12T00:32:36.826Z,99780.16
2023-03-12T00:33:08.519Z,99779.97
2023-03-12T00:33:40.564Z,99774.94
2023-03-12T00:34:12.242Z,99770.91
2023-03-12T00:34:44.876Z,99776.78
2023-03-12T00:35:16.600Z,99796.44
2023-03-12T00:35:48.329Z,99789.56
2023-03-12T00:36:24.847Z,99782.19
2023-03-12T00:36:56.615Z,99787.13
2023-03-12T00:37:28.320Z,99787.97
2023-03-12T00:38:00.138Z,99785.34
2023-03-12T00:38:31.816Z,99782.84
2023-03-12T00:39:03.998Z,99782.19
2023-03-12T00:39:35.949Z,99789.63
2023-03-12T00:40:10.097Z,99792.34
2023-03-12T00:40:41.840Z,99801.00
2023-03-12T00:41:13.517Z,99787.53
2023-03-12T00:41:45.536Z,99792.75
2023-03-12T00:42:18.153Z,99790.16
2023-03-12T00:42:49.865Z,99799.13
2023-03-12T00:43:21.568Z,99793.44
2023-03-12T00:43:53.809Z,99791.41
2023-03-12T00:44:25.586Z,99798.47
2023-03-12T00:44:57.293Z,99802.84
2023-03-12T00:45:29.053Z,99803.03
2023-03-12T00:46:00.821Z,99781.09
2023-03-12T00:46:32.640Z,99796.09
2023-03-12T00:47:04.865Z,99793.59
2023-03-12T00:47:36.629Z,99790.84
2023-03-12T00:48:09.393Z,99802.75
2023-03-12T00:48:41.472Z,99795.59
2023-03-12T00:49:13.094Z,99792.06
2023-03-12T00:49:44.881Z,99794.84
2023-03-12T00:50:16.587Z,99808.25
2023-03-12T00:50:48.319Z,99796.91
2023-03-12T00:51:20.293Z,99795.31
2023-03-12T00:51:52.667Z,99793.75
2023-03-12T00:52:24.368Z,99786.28
2023-03-12T00:52:56.132Z,99796.25
2023-03-12T00:53:27.808Z,99792.06
2023-03-12T00:53:59.738Z,99805.09
2023-03-12T00:54:31.485Z,99799.22
2023-03-12T00:55:03.340Z,99798.72
2023-03-12T00:55:35.270Z,99799.81
2023-03-12T00:56:07.533Z,99796.28
2023-03-12T00:56:39.204Z,99793.13
2023-03-12T00:57:11.046Z,99808.38
2023-03-12T00:57:42.885Z,99800.94
2023-03-12T00:58:14.545Z,99792.38
2023-03-12T00:58:46.416Z,99800.00
2023-03-12T00:59:18.113Z,99803.53
2023-03-12T00:59:49.815Z,99803.63
2023-03-12T01:00:21.902Z,99801.69
2023-03-12T01:00:53.702Z,99810.59
2023-03-12T01:01:27.647Z,99793.78
2023-03-12T01:01:59.345Z,99808.91
2023-03-12T01:02:31.032Z,99804.91
2023-03-12T01:03:02.741Z,99810.00
2023-03-12T01:03:34.433Z,99804.72
2023-03-12T01:04:06.202Z,99806.50
2023-03-12T01:04:37.974Z,99813.19
2023-03-12T01:05:12.263Z,99802.22
2023-03-12T01:05:44.029Z,99808.16
2023-03-12T01:06:15.701Z,99810.84
2023-03-12T01:06:47.451Z,99815.31
2023-03-12T01:07:19.136Z,99811.03
2023-03-12T01:07:51.190Z,99808.44
2023-03-12T01:08:23.861Z,99813.63
2023-03-12T01:08:55.870Z,99811.88
2023-03-12T01:09:27.626Z,99800.00
2023-03-12T01:09:59.350Z,99800.19
2023-03-12T01:10:31.130Z,99800.09
2023-03-12T01:11:03.017Z,99801.88
2023-03-12T01:11:36.015Z,99809.50
2023-03-12T01:12:08.072Z,99812.00
2023-03-12T01:12:39.904Z,99813.78
2023-03-12T01:13:11.736Z,99812.00
2023-03-12T01:13:43.513Z,99801.19
2023-03-12T01:14:15.180Z,99804.38
2023-03-12T01:14:46.892Z,99801.19
2023-03-12T01:15:19.486Z,99805.13
2023-03-12T01:15:51.167Z,99811.44
2023-03-12T01:16:28.163Z,99798.41
2023-03-12T01:16:59.940Z,99807.16
2023-03-12T01:17:31.705Z,99803.63
2023-03-12T01:18:03.638Z,99793.47
2023-03-12T01:18:35.562Z,99804.38
2023-03-12T01:19:07.230Z,99796.84
2023-03-12T01:19:38.976Z,99799.16
2023-03-12T01:20:11.424Z,99796.00
2023-03-12T01:20:43.376Z,99792.63
2023-03-12T01:21:15.092Z,99797.66
2023-03-12T01:21:46.784Z,99795.06
2023-03-12T01:22:18.472Z,99797.66
2023-03-12T01:22:50.890Z,99804.56
2023-03-12T01:23:22.577Z,99795.16
2023-03-12T01:23:55.785Z,99805.41
2023-03-12T01:24:27.411Z,99800.19
2023-03-12T01:24:59.090Z,99790.97
2023-03-12T01:25:30.803Z,99795.16
2023-03-12T01:26:02.859Z,99800.28
2023-03-12T01:26:34.604Z,99789.28
2023-03-12T01:27:06.374Z,99788.53
2023-03-12T01:27:38.108Z,99793.47
2023-03-12T01:28:09.911Z,99793.56
2023-03-12T01:28:41.639Z,99792.56
2023-03-12T01:29:13.329Z,99794.22
2023-03-12T01:29:45.004Z,99794.13
2023-03-12T01:30:16.835Z,99795.16
2023-03-12T01:30:48.891Z,99803.72
2023-03-12T01:31:20.823Z,99802.88
2023-03-12T01:31:52.969Z,99801.03
2023-03-12T01:32:24.746Z,99801.69
2023-03-12T01:32:56.507Z,99788.00
2023-03-12T01:33:28.185Z,99799.00
2023-03-12T01:33:59.889Z,99805.88
2023-03-12T01:34:33.516Z,99797.31
2023-03-12T01:35:06.432Z,99799.00
2023-03-12T01:35:40.048Z,99794.81
2023-03-12T01:36:29.188Z,99794.31
2023-03-12T01:37:01.291Z,99794.41
2023-03-12T01:37:33.599Z,99802.22
2023-03-12T01:38:07.343Z,99799.50
2023-03-12T01:38:39.016Z,99799.44
2023-03-12T01:39:11.051Z,99796.81
2023-03-12T01:39:42.773Z,99804.38
2023-03-12T01:40:17.199Z,99809.41
2023-03-12T01:40:48.893Z,99805.03
2023-03-12T01:41:23.085Z,99803.09
2023-03-12T01:41:54.872Z,99804.69
2023-03-12T01:42:26.979Z,99802.16
2023-03-12T01:42:58.785Z,99807.31
2023-03-12T01:43:34.057Z,99807.22
2023-03-12T01:44:06.084Z,99801.16
2023-03-12T01:45:31.978Z,99806.19
2023-03-12T01:46:24.259Z,99800.81
2023-03-12T01:46:56.064Z,99796.88
2023-03-12T01:47:31.998Z,99802.84
2023-03-12T01:48:03.853Z,99810.38
2023-03-12T01:48:42.856Z,99806.84
2023-03-12T01:49:16.338Z,99810.22
2023-03-12T01:49:50.049Z,99807.94
2023-03-12T01:50:21.781Z,99806.16
2023-03-12T01:50:53.535Z,99805.34
2023-03-12T01:51:30.591Z,99811.09
2023-03-12T01:52:06.793Z,99808.50
2023-03-12T01:52:39.500Z,99815.31
2023-03-12T01:53:12.192Z,99808.41
2023-03-12T01:53:49.488Z,99818.75
2023-03-12T01:54:42.697Z,99811.00
2023-03-12T01:55:17.594Z,99817.06
2023-03-12T01:55:50.648Z,99816.88
2023-03-12T01:56:25.397Z,99816.88
2023-03-12T01:56:58.363Z,99817.06
2023-03-12T01:57:48.413Z,99808.41
2023-03-12T01:58:20.296Z,99812.50
2023-03-12T01:58:58.909Z,99820.41
2023-03-12T01:59:41.025Z,99810.19
2023-03-12T02:00:17.172Z,99806.47
2023-03-12T02:00:49.070Z,99814.00
2023-03-12T02:01:23.003Z,99809.84
2023-03-12T02:01:54.858Z,99819.44
2023-03-12T02:02:28.862Z,99810.13
2023-03-12T02:03:06.125Z,99819.44
2023-03-12T02:03:38.105Z,99808.09
2023-03-12T02:04:11.738Z,99819.09
2023-03-12T02:04:45.956Z,99821.06
2023-03-12T02:06:03.268Z,99815.84
2023-03-12T02:06:44.033Z,99808.88
2023-03-12T02:07:17.177Z,99814.72
2023-03-12T02:07:49.245Z,99818.09
2023-03-12T02:08:23.759Z,99821.53
2023-03-12T02:08:57.502Z,99816.41
2023-03-12T02:09:32.389Z,99819.75
2023-03-12T02:10:05.551Z,99819.09
2023-03-12T02:10:37.759Z,99818.44
2023-03-12T02:11:09.588Z,99823.38
2023-03-12T02:11:41.363Z,99820.97
2023-03-12T02:12:13.235Z,99826.25
2023-03-12T02:12:45.189Z,99825.34
2023-03-12T02:13:17.152Z,99821.09
2023-03-12T02:13:48.828Z,99828.69
2023-03-12T02:14:20.883Z,99829.53
2023-03-12T02:14:52.784Z,99821.81
2023-03-12T02:15:24.612Z,99825.44
2023-03-12T02:15:56.295Z,99825.47
2023-03-12T02:16:28.866Z,99824.66
2023-03-12T02:17:00.864Z,99827.84
2023-03-12T02:17:32.836Z,99834.09
2023-03-12T02:18:09.756Z,99833.31
2023-03-12T02:18:41.494Z,99829.94
2023-03-12T02:19:23.525Z,99823.81
2023-03-12T02:20:19.951Z,99833.25
2023-03-12T02:21:30.446Z,99837.53
2023-03-12T02:22:03.549Z,99836.75
2023-03-12T02:22:44.170Z,99828.34
2023-03-12T02:23:34.380Z,99830.22
2023-03-12T02:24:43.348Z,99834.41
2023-03-12T02:25:35.629Z,99836.75
2023-03-12T02:26:09.081Z,99832.47
2023-03-12T02:26:41.155Z,99849.44
2023-03-12T02:27:13.065Z,99851.88
2023-03-12T02:27:46.112Z,99840.53
2023-03-12T02:28:21.899Z,99839.13
2023-03-12T02:28:54.868Z,99840.63
2023-03-12T02:29:32.021Z,99845.56
2023-03-12T02:30:05.250Z,99847.13
2023-03-12T02:30:39.259Z,99843.78
2023-03-12T02:31:14.484Z,99852.25
2023-03-12T02:31:53.098Z,99853.19
2023-03-12T02:32:29.636Z,99852.53
2023-03-12T02:33:06.171Z,99857.66
2023-03-12T02:33:37.886Z,99850.09
2023-03-12T02:34:09.856Z,99843.97
2023-03-12T02:34:41.507Z,99858.41
2023-03-12T02:35:17.068Z,99861.75
2023-03-12T02:35:48.954Z,99851.50
2023-03-12T02:36:20.852Z,99855.03
2023-03-12T02:36:52.722Z,99856.53
2023-03-12T02:37:24.460Z,99861.75
2023-03-12T02:37:56.815Z,99861.19
2023-03-12T02:38:49.749Z,99871.25
2023-03-12T02:39:21.940Z,99861.94
2023-03-12T02:40:09.817Z,99867.31
2023-03-12T02:40:46.639Z,99855.41
2023-03-12T02:41:34.204Z,99880.19
2023-03-12T02:42:06.196Z,99872.72
2023-03-12T02:42:38.073Z,99867.50
2023-03-12T02:43:11.515Z,99880.28
2023-03-12T02:43:47.375Z,99866.84
2023-03-12T02:44:22.458Z,99880.53
2023-03-12T02:44:54.304Z,99874.47
2023-03-12T02:45:26.577Z,99876.44
2023-03-12T02:45:58.962Z,99886.69
2023-03-12T02:46:39.900Z,99868.19
2023-03-12T02:47:11.936Z,99879.97
2023-03-12T02:47:43.645Z,99864.84
2023-03-12T02:48:15.338Z,99876.53
2023-03-12T02:48:47.147Z,99880.88
2023-03-12T02:49:21.412Z,99886.19
2023-03-12T02:49:53.181Z,99884.16
2023-03-12T02:50:24.887Z,99886.09
2023-03-12T02:50:56.598Z,99891.06
2023-03-12T02:51:28.338Z,99879.13
2023-03-12T02:52:00.803Z,99872.38
2023-03-12T02:52:35.692Z,99889.53
2023-03-12T02:53:07.366Z,99877.03
2023-03-12T02:53:39.653Z,99886.25
2023-03-12T02:54:12.964Z,99873.41
2023-03-12T02:54:44.647Z,99885.59
2023-03-12T02:55:16.467Z,99887.69
2023-03-12T02:55:48.291Z,99883.50
2023-03-12T02:56:20.089Z,99890.03
2023-03-12T02:56:52.552Z,99884.91
2023-03-12T02:57:24.262Z,99892.81
2023-03-12T02:57:55.940Z,99895.25
2023-03-12T02:58:27.781Z,99896.16
2023-03-12T02:59:01.032Z,99894.84
2023-03-12T02:59:33.795Z,99906.78
2023-03-12T03:00:12.564Z,99895.91
2023-03-12T03:00:44.300Z,99902.06
2023-03-12T03:01:16.949Z,99895.16
2023-03-12T03:01:54.488Z,99901.22
2023-03-12T03:02:26.219Z,99897.88
2023-03-12T03:03:01.187Z,99904.53
2023-03-12T03:03:32.888Z,99898.03
2023-03-12T03:04:06.909Z,99898.97
2023-03-12T03:04:38.782Z,99898.47
2023-03-12T03:05:11.869Z,99888.22
2023-03-12T03:05:43.845Z,99895.25
2023-03-12T03:06:16.398Z,99903.00
2023-03-12T03:06:48.715Z,99907.22
2023-03-12T03:07:20.638Z,99902.91
2023-03-12T03:07:52.544Z,99900.41
2023-03-12T03:08:24.234Z,99901.31
2023-03-12T03:08:56.138Z,99912.31
2023-03-12T03:09:27.854Z,99911.72
2023-03-12T03:10:04.530Z,99912.59
2023-03-12T03:10:36.276Z,99908.53
2023-03-12T03:11:08.018Z,99914.56
2023-03-12T03:11:40.255Z,99910.53
2023-03-12T03:12:11.952Z,99901.13
2023-03-12T03:12:44.474Z,99919.94
2023-03-12T03:13:16.196Z,99909.03
2023-03-12T03:13:47.860Z,99905.50
2023-03-12T03:14:19.984Z,99905.59
2023-03-12T03:14:51.644Z,99920.97
2023-03-12T03:15:23.799Z,99917.59
2023-03-12T03:15:57.839Z,99915.00
2023-03-12T03:16:29.880Z,99919.44
2023-03-12T03:17:01.586Z,99905.06
2023-03-12T03:17:33.296Z,99917.03
2023-03-12T03:18:05.532Z,99908.59
2023-03-12T03:18:37.186Z,99909.34
2023-03-12T03:19:08.957Z,99911.28
2023-03-12T03:19:40.805Z,99900.34
2023-03-12T03:20:12.687Z,99908.16
2023-03-12T03:20:45.077Z,99922.53
2023-03-12T03:21:17.808Z,99922.53
2023-03-12T03:21:49.594Z,99932.00
2023-03-12T03:22:22.921Z,99925.03
2023-03-12T03:22:54.613Z,99925.97
2023-03-12T03:23:26.388Z,99926.91
2023-03-12T03:23:58.114Z,99933.69
2023-03-12T03:24:29.789Z,99935.72
2023-03-12T03:25:01.591Z,99927.16
2023-03-12T03:25:33.930Z,99941.66
2023-03-12T03:26:05.690Z,99934.19
2023-03-12T03:26:37.598Z,99930.91
2023-03-12T03:27:09.465Z,99940.16
2023-03-12T03:27:41.134Z,99924.13
2023-03-12T03:28:12.818Z,99944.44
2023-03-12T03:29:15.394Z,99936.97
2023-03-12T03:29:47.126Z,99936.25
2023-03-12T03:30:19.297Z,99942.16
2023-03-12T03:30:55.531Z,99943.09
2023-03-12T03:31:27.365Z,99944.78
2023-03-12T03:31:59.234Z,99942.25
2023-03-12T03:32:30.970Z,99932.31
2023-03-12T03:33:02.680Z,99933.16
2023-03-12T03:33:36.693Z,99946.84
2023-03-12T03:34:08.362Z,99943.56
2023-03-12T03:34:40.064Z,99933.31
2023-03-12T03:35:11.942Z,99951.34
2023-03-12T03:35:43.636Z,99938.69
2023-03-12T03:36:15.718Z,99948.91
2023-03-12T03:36:47.461Z,99951.59
2023-03-12T03:37:19.211Z,99942.38
2023-03-12T03:37:50.880Z,99940.81
2023-03-12T03:38:24.300Z,99954.28
2023-03-12T03:38:56.026Z,99953.44
2023-03-12T03:39:29.569Z,99952.91
2023-03-12T03:40:01.392Z,99959.66
2023-03-12T03:40:33.568Z,99951.97
2023-03-12T03:41:05.308Z,99957.97
2023-03-12T03:41:37.373Z,99960.50
2023-03-12T03:42:09.193Z,99954.44
2023-03-12T03:42:41.121Z,99968.38
2023-03-12T03:43:13.121Z,99954.56
2023-03-12T03:43:44.896Z,99959.94
2023-03-12T03:44:16.606Z,99965.91
2023-03-12T03:44:48.285Z,99963.31
2023-03-12T03:45:19.955Z,99966.91
2023-03-12T03:46:02.818Z,99962.72
2023-03-12T03:46:38.143Z,99965.22
2023-03-12T03:47:09.943Z,99967.84
2023-03-12T03:47:41.663Z,99967.75
2023-03-12T03:48:13.880Z,99976.47
2023-03-12T03:48:45.592Z,99966.06
2023-03-12T03:49:17.424Z,99949.47
2023-03-12T03:49:49.216Z,99972.34
2023-03-12T03:50:21.097Z,99978.25
2023-03-12T03:50:53.282Z,99974.72
2023-03-12T03:51:24.961Z,99974.72
2023-03-12T03:51:56.764Z,99974.56
2023-03-12T03:52:28.465Z,99962.72
2023-03-12T03:53:00.132Z,99967.00
2023-03-12T03:53:32.761Z,99969.34
2023-03-12T03:54:04.626Z,99961.88
2023-03-12T03:54:36.427Z,99971.19
2023-03-12T03:55:09.036Z,99969.66
2023-03-12T03:55:41.106Z,99973.03
2023-03-12T03:56:15.846Z,99970.00
2023-03-12T03:56:48.448Z,99975.03
2023-03-12T03:57:20.125Z,99973.44
2023-03-12T03:57:52.007Z,99975.13
2023-03-12T03:58:23.723Z,99985.53
2023-03-12T03:58:55.399Z,99982.00
2023-03-12T03:59:27.144Z,99981.06
2023-03-12T04:00:03.657Z,99981.25
2023-03-12T04:00:35.689Z,99984.69
2023-03-12T04:01:07.411Z,99984.91
2023-03-12T04:01:39.355Z,99993.56
2023-03-12T04:02:11.020Z,99980.75
2023-03-12T04:02:42.712Z,99996.09
2023-03-12T04:03:14.537Z,99992.56
2023-03-12T04:03:46.442Z,99985.19
2023-03-12T04:04:18.441Z,99991.31
2023-03-12T04:04:50.568Z,99991.47
2023-03-12T04:05:22.397Z,99989.63
2023-03-12T04:05:56.188Z,99989.56
2023-03-12T04:06:29.930Z,99987.88
2023-03-12T04:07:01.624Z,100002.13
2023-03-12T04:07:33.429Z,100010.94
2023-03-12T04:08:06.273Z,99996.00
2023-03-12T04:08:38.788Z,100003.13
2023-03-12T04:09:11.150Z,99998.13
2023-03-12T04:09:43.626Z,99985.50
2023-03-12T04:10:15.611Z,100000.72
2023-03-12T04:10:47.276Z,100010.13
2023-03-12T04:11:21.788Z,100002.31
2023-03-12T04:11:53.559Z,100000.81
2023-03-12T04:12:26.141Z,100007.69
2023-03-12T04:12:58.309Z,99998.28
2023-03-12T04:13:29.954Z,99999.97
2023-03-12T04:14:01.680Z,99996.53
2023-03-12T04:14:33.612Z,100009.38
2023-03-12T04:15:06.334Z,100010.28
2023-03-12T04:15:38.173Z,100010.13
2023-03-12T04:16:10.411Z,100002.56
2023-03-12T04:16:42.162Z,100005.16
2023-03-12T04:17:13.871Z,100008.75
2023-03-12T04:17:45.857Z,100005.16
2023-03-12T04:18:18.003Z,100005.31
2023-03-12T04:18:49.849Z,99998.34
2023-03-12T04:19:21.596Z,100008.00
2023-03-12T04:19:53.629Z,100007.91
2023-03-12T04:20:25.334Z,99988.63
2023-03-12T04:20:56.993Z,100008.00
2023-03-12T04:21:28.731Z,99995.38
2023-03-12T04:22:00.469Z,100007.22
2023-03-12T04:22:32.203Z,100006.47
2023-03-12T04:23:03.891Z,100005.63
2023-03-12T04:23:36.912Z,100005.63
2023-03-12T04:24:14.864Z,100003.88
2023-03-12T04:24:46.540Z,100012.44
2023-03-12T04:25:18.515Z,100004.63
2023-03-12T04:25:50.298Z,100005.56
2023-03-12T04:26:22.064Z,99998.75
2023-03-12T04:26:53.802Z,100002.28
2023-03-12T04:27:25.894Z,100005.88
2023-03-12T04:27:57.622Z,100008.50
2023-03-12T04:28:29.362Z,100001.63
2023-03-12T04:29:01.275Z,100009.34
2023-03-12T04:29:32.976Z,100005.06
2023-03-12T04:30:05.072Z,100011.00
2023-03-12T04:30:38.381Z,100005.91
2023-03-12T04:31:11.887Z,100009.22
2023-03-12T04:31:43.814Z,100014.56
2023-03-12T04:32:16.117Z,100001.09
2023-03-12T04:32:48.092Z,100019.97
2023-03-12T04:33:19.757Z,100022.44
2023-03-12T04:33:51.443Z,100023.28
2023-03-12T04:34:23.114Z,100015.63
2023-03-12T04:34:54.869Z,100014.09
2023-03-12T04:35:26.575Z,100021.91
2023-03-12T04:35:59.274Z,100017.31
2023-03-12T04:36:31.424Z,100020.81
2023-03-12T04:37:03.703Z,100024.19
2023-03-12T04:37:35.790Z,100021.66
2023-03-12T04:38:07.532Z,100012.41
2023-03-12T04:38:39.288Z,100012.56
2023-03-12T04:39:11.191Z,100022.81
2023-03-12T04:39:44.816Z,100023.72
2023-03-12T04:40:20.159Z,100016.00
2023-03-12T04:41:09.249Z,100016.09
2023-03-12T04:41:40.942Z,100022.03
2023-03-12T04:42:12.809Z,100013.63
2023-03-12T04:42:44.659Z,100018.59
2023-03-12T04:43:20.139Z,100024.66
2023-03-12T04:43:52.058Z,100012.00
2023-03-12T04:44:23.869Z,100029.09
2023-03-12T04:44:55.656Z,100023.25
2023-03-12T04:45:27.330Z,100018.00
2023-03-12T04:45:59.637Z,100012.91
2023-03-12T04:46:32.863Z,100023.97
2023-03-12T04:47:04.829Z,100013.00
2023-03-12T04:47:36.546Z,100017.16
2023-03-12T04:48:08.271Z,100018.84
2023-03-12T04:48:39.984Z,100020.59
2023-03-12T04:49:11.852Z,100021.44
2023-03-12T04:49:44.197Z,100024.06
2023-03-12T04:50:15.931Z,100013.91
2023-03-12T04:50:47.735Z,100024.03
2023-03-12T04:51:19.635Z,100015.44
2023-03-12T04:51:51.504Z,100013.91
2023-03-12T04:52:23.206Z,100027.47
2023-03-12T04:52:54.922Z,100008.09
2023-03-12T04:53:26.814Z,100024.72
2023-03-12T04:53:59.614Z,100023.25
2023-03-12T04:54:32.022Z,100021.56
2023-03-12T04:55:04.333Z,100021.72
2023-03-12T04:55:36.026Z,100035.34
2023-03-12T04:56:07.938Z,100029.44
2023-03-12T04:56:39.667Z,100034.69
2023-03-12T04:57:11.370Z,100039.75
2023-03-12T04:57:43.301Z,100042.00
2023-03-12T04:58:16.360Z,100034.28
2023-03-12T04:58:48.587Z,100038.41
2023-03-12T04:59:20.276Z,100042.06
2023-03-12T04:59:52.381Z,100045.44
2023-03-12T05:00:24.176Z,100046.44
2023-03-12T05:00:55.927Z,100040.41
2023-03-12T05:01:28.996Z,100044.53
2023-03-12T05:02:00.739Z,100033.50
2023-03-12T05:02:32.453Z,100045.44
2023-03-12T05:03:04.225Z,100047.97
2023-03-12T05:03:36.130Z,100041.31
2023-03-12T05:04:08.106Z,100049.66
2023-03-12T05:04:39.855Z,100049.56
2023-03-12T05:05:11.964Z,100049.41
2023-03-12T05:05:44.025Z,100047.97
2023-03-12T05:06:15.724Z,100043.59
2023-03-12T05:06:47.404Z,100055.53
2023-03-12T05:07:19.925Z,100045.28
2023-03-12T05:07:52.065Z,100050.41
2023-03-12T05:08:23.742Z,100063.25
2023-03-12T05:08:55.466Z,100058.13
2023-03-12T05:09:27.205Z,100054.63
2023-03-12T05:09:58.898Z,100057.22
2023-03-12T05:10:30.929Z,100052.94
2023-03-12T05:11:02.801Z,100055.69
2023-03-12T05:11:34.516Z,100061.50
2023-03-12T05:12:06.754Z,100061.44
2023-03-12T05:12:39.528Z,100065.16
2023-03-12T05:13:21.808Z,100058.38
2023-03-12T05:13:54.115Z,100060.06
2023-03-12T05:14:26.323Z,100060.75
2023-03-12T05:14:58.067Z,100052.09
2023-03-12T05:15:29.760Z,100064.09
2023-03-12T05:16:01.532Z,100067.47
2023-03-12T05:16:33.302Z,100068.31
2023-03-12T05:17:05.430Z,100061.50
2023-03-12T05:17:37.229Z,100065.72
2023-03-12T05:18:08.972Z,100050.50
2023-03-12T05:18:41.011Z,100060.59
2023-03-12T05:19:12.888Z,100069.16
2023-03-12T05:19:45.713Z,100064.94
2023-03-12T05:20:20.319Z,100065.66
2023-03-12T05:21:18.028Z,100058.81
2023-03-12T05:21:49.865Z,100068.03
2023-03-12T05:22:21.590Z,100063.75
2023-03-12T05:22:53.299Z,100069.78
2023-03-12T05:23:24.979Z,100067.19
2023-03-12T05:23:56.822Z,100080.03
2023-03-12T05:24:28.667Z,100074.91
2023-03-12T05:25:02.344Z,100075.59
2023-03-12T05:25:34.186Z,100075.84
2023-03-12T05:26:06.855Z,100075.75
2023-03-12T05:26:38.846Z,100069.78
2023-03-12T05:27:11.641Z,100073.00
2023-03-12T05:27:43.388Z,100077.38
2023-03-12T05:28:15.089Z,100082.50
2023-03-12T05:28:46.924Z,100071.25
2023-03-12T05:29:18.617Z,100079.75
2023-03-12T05:29:50.314Z,100072.63
2023-03-12T05:30:22.438Z,100072.44
2023-03-12T05:30:58.625Z,100082.75
2023-03-12T05:31:35.510Z,100080.06
2023-03-12T05:32:10.349Z,100068.34
2023-03-12T05:32:42.056Z,100081.00
2023-03-12T05:33:13.802Z,100086.97
2023-03-12T05:33:45.965Z,100080.00
2023-03-12T05:34:17.640Z,100079.94
2023-03-12T05:34:49.440Z,100081.59
2023-03-12T05:35:21.167Z,100086.50
2023-03-12T05:35:53.382Z,100072.81
2023-03-12T05:36:25.529Z,100082.97
2023-03-12T05:36:58.242Z,100079.69
2023-03-12T05:37:30.901Z,100089.88
2023-03-12T05:38:02.637Z,100077.69
2023-03-12T05:38:34.304Z,100092.94
2023-03-12T05:39:06.096Z,100090.34
2023-03-12T05:39:38.218Z,100085.22
2023-03-12T05:40:12.032Z,100095.16
2023-03-12T05:40:44.002Z,100094.31
2023-03-12T05:41:22.380Z,100084.91
2023-03-12T05:41:56.942Z,100096.72
2023-03-12T05:42:28.633Z,100096.72
2023-03-12T05:43:00.307Z,100095.88
2023-03-12T05:43:33.040Z,100094.16
2023-03-12T05:44:04.809Z,100099.09
2023-03-12T05:44:36.507Z,100103.38
2023-03-12T05:45:08.777Z,100105.81
2023-03-12T05:45:40.547Z,100107.25
2023-03-12T05:46:13.060Z,100102.81
2023-03-12T05:46:45.138Z,100109.78
2023-03-12T05:47:17.181Z,100106.25
2023-03-12T05:47:48.936Z,100107.81
2023-03-12T05:48:20.667Z,100103.53
2023-03-12T05:48:52.463Z,100113.78
2023-03-12T05:49:24.242Z,100110.25
2023-03-12T05:49:55.947Z,100105.72
2023-03-12T05:50:27.702Z,100108.09
2023-03-12T05:50:59.505Z,100107.09
2023-03-12T05:51:31.242Z,100105.34
2023-03-12T05:52:02.937Z,100113.31
2023-03-12T05:52:34.645Z,100115.69
2023-03-12T05:53:06.416Z,100109.63
2023-03-12T05:53:38.276Z,100106.34
2023-03-12T05:54:10.523Z,100114.78
2023-03-12T05:54:42.469Z,100113.00
2023-03-12T05:55:14.159Z,100117.38
2023-03-12T05:55:45.842Z,100115.53
2023-03-12T05:56:18.473Z,100121.44
2023-03-12T05:56:50.216Z,100108.50
2023-03-12T05:57:21.901Z,100115.91
2023-03-12T05:57:53.605Z,100116.66
2023-03-12T05:58:25.326Z,100108.16
2023-03-12T05:58:57.154Z,100119.19
2023-03-12T05:59:29.550Z,100113.13
2023-03-12T06:00:01.302Z,100117.97
2023-03-12T06:00:38.001Z,100118.72
2023-03-12T06:01:22.567Z,100118.47
2023-03-12T06:01:54.308Z,100125.28
2023-03-12T06:02:26.106Z,100124.19
2023-03-12T06:02:58.034Z,100124.06
2023-03-12T06:03:29.780Z,100128.34
2023-03-12T06:04:01.471Z,100130.97
2023-03-12T06:04:33.170Z,100137.16
2023-03-12T06:05:05.477Z,100137.09
2023-03-12T06:05:38.119Z,100137.94
2023-03-12T06:06:10.927Z,100136.09
2023-03-12T06:06:42.695Z,100142.72
2023-03-12T06:07:14.387Z,100137.59
2023-03-12T06:07:46.146Z,100141.72
2023-03-12T06:08:17.837Z,100148.78
2023-03-12T06:08:51.128Z,100145.16
2023-03-12T06:09:23.048Z,100155.34
2023-03-12T06:09:54.786Z,100157.06
2023-03-12T06:10:26.594Z,100151.00
2023-03-12T06:10:58.281Z,100150.09
2023-03-12T06:11:30.114Z,100146.47
2023-03-12T06:12:01.783Z,100136.22
2023-03-12T06:12:33.542Z,100151.44
2023-03-12T06:13:05.455Z,100153.72
2023-03-12T06:13:37.167Z,100154.38
2023-03-12T06:14:09.821Z,100160.38
2023-03-12T06:14:41.593Z,100157.44
2023-03-12T06:15:13.277Z,100169.00
2023-03-12T06:15:44.940Z,100165.03
2023-03-12T06:16:20.819Z,100170.00
2023-03-12T06:16:52.668Z,100165.44
2023-03-12T06:17:24.504Z,100161.69
2023-03-12T06:17:56.289Z,100157.47
2023-03-12T06:18:28.027Z,100165.53
2023-03-12T06:19:02.143Z,100167.03
2023-03-12T06:19:33.846Z,100170.56
2023-03-12T06:20:06.498Z,100165.38
2023-03-12T06:20:38.164Z,100176.56
2023-03-12T06:21:18.591Z,100175.66
2023-03-12T06:21:55.252Z,100177.91
2023-03-12T06:22:27.040Z,100167.69
2023-03-12T06:22:58.724Z,100175.97
2023-03-12T06:23:30.403Z,100178.81
2023-03-12T06:24:03.185Z,100175.75
2023-03-12T06:24:34.878Z,100184.00
2023-03-12T06:25:07.127Z,100183.84
2023-03-12T06:25:38.803Z,100181.78